Sacramento, CA

1:51 AM PST on November 29, 2014 (GMT -0800)
Sacramento International | Change Station
CLOSE
Current Station
Airport
Location: Sacramento International,
Elevation: 26 ft
Nearby Weather Stations

Elev 26 ft 38.70 °N, 121.59 °W | Updated 58 minutes ago

Overcast
Overcast
54 °F
Feels Like 54 °F
N
10
Wind Variable Wind from SE

Today
High -- | Low -- °F
--% Chance of Precip.
Yesterday
High -- | Low -- °F
Precip. -- in
7:03 AM 4:45 PM
Waxing Crescent, 50% visible
Pressure 29.86 in
Visibility 4.0 miles
Clouds Mostly Cloudy 1700 ft
Overcast 2300 ft
Dew Point 51 °F
Humidity 90%
Rainfall 0.01 in
Snow Depth Not available.
UV 0 out of 12
Pollen 2.10 out of 12
Air Quality Not available.
Flu Activity Not available.
METAR KSMF 290853Z 14009KT 4SM -RA BR BKN017 OVC023 12/11 A2985 RMK AO2 RAE26B52 SLP109 P0001 60003 T01220106 50002

More Conditions Fewer Conditions

Pressure 29.86 in
Visibility 4.0 miles
Clouds Mostly Cloudy 1700 ft
Overcast 2300 ft
Dew Point 51 °F
Humidity 90%
Rainfall 0.01 in
Snow Depth Not available.
UV 0 out of 12
Pollen 2.10 out of 12
Air Quality Not available.
Flu Activity Not available.
METAR KSMF 290853Z 14009KT 4SM -RA BR BKN017 OVC023 12/11 A2985 RMK AO2 RAE26B52 SLP109 P0001 60003 T01220106 50002

More Conditions Fewer Conditions

10-Day Weather Forecast

Almanac

Astronomy

Nov. 29, 2014 Rise Set
Actual Time
Civil Twilight
Nautical Twilight
Astronomical Twilight
Moon
Length of Visible Light
Length of Day
Tomorrow will be .
, % of the Moon is Illuminated

Today's Extremes

State Highs State Lows

Community

WunderPhotos

Upload Photos

1,774,442 photos uploaded!

WunderBlogs® & News

Nearby

Air Quality

  Air Quality AQ Index Pollutant
Not available.

Snow Depth

Station Depth Elevation

Earthquake Activity

City Distance Mag. Time & Date
Minimum magnitude displayed is 2.5.

Coastal Water Temperatures

Place Temperature

Nearby Weather Stations